createdAt,value
2022-08-07T00:01:44.015Z,58.98
2022-08-07T00:04:15.455Z,59.46
2022-08-07T00:06:51.846Z,60.41
2022-08-07T00:09:22.841Z,61.07
2022-08-07T00:11:56.026Z,61.00
2022-08-07T00:14:31.256Z,61.70
2022-08-07T00:17:03.172Z,62.39
2022-08-07T00:20:00.077Z,60.99
2022-08-07T00:22:24.514Z,61.92
2022-08-07T00:25:16.735Z,61.08
2022-08-07T00:27:53.404Z,60.33
2022-08-07T00:30:27.121Z,60.90
2022-08-07T00:32:57.603Z,60.55
2022-08-07T00:35:27.156Z,60.23
2022-08-07T00:38:01.166Z,60.09
2022-08-07T00:40:36.455Z,60.67
2022-08-07T00:43:10.610Z,60.58
2022-08-07T00:45:57.270Z,62.29
2022-08-07T00:48:29.308Z,61.89
2022-08-07T00:51:13.431Z,61.73
2022-08-07T00:53:50.487Z,61.81
2022-08-07T00:56:30.187Z,62.35
2022-08-07T00:58:58.732Z,63.22
2022-08-07T01:01:26.533Z,63.60
2022-08-07T01:04:00.138Z,63.53
2022-08-07T01:06:29.418Z,63.70
2022-08-07T01:08:58.710Z,63.88
2022-08-07T01:12:10.117Z,63.36
2022-08-07T01:14:28.457Z,63.07
2022-08-07T01:16:57.385Z,62.72
2022-08-07T01:19:26.678Z,62.65
2022-08-07T01:21:55.671Z,62.87
2022-08-07T01:24:23.909Z,63.67
2022-08-07T01:26:52.710Z,62.51
2022-08-07T01:29:27.717Z,62.69
2022-08-07T01:31:55.903Z,63.49
2022-08-07T01:34:30.949Z,64.50
2022-08-07T01:37:00.449Z,64.22
2022-08-07T01:39:40.992Z,63.52
2022-08-07T01:42:39.772Z,63.11
2022-08-07T01:45:10.036Z,63.46
2022-08-07T01:48:19.261Z,64.56
2022-08-07T01:50:36.355Z,63.19
2022-08-07T01:53:08.787Z,62.77
2022-08-07T01:55:55.812Z,63.34
2022-08-07T01:58:29.706Z,63.37
2022-08-07T02:01:25.372Z,64.23
2022-08-07T02:06:45.893Z,63.39
2022-08-07T02:09:52.127Z,63.70
2022-08-07T02:12:19.961Z,62.86
2022-08-07T02:14:58.568Z,62.78
2022-08-07T02:17:29.384Z,62.87
2022-08-07T02:20:16.949Z,62.64
2022-08-07T02:22:46.649Z,63.39
2022-08-07T02:26:10.290Z,63.99
2022-08-07T02:28:11.307Z,63.89
2022-08-07T02:30:40.596Z,63.57
2022-08-07T02:33:10.624Z,63.76
2022-08-07T02:36:30.619Z,64.16
2022-08-07T02:38:32.367Z,64.60
2022-08-07T02:41:04.052Z,64.87
2022-08-07T02:43:33.217Z,64.50
2022-08-07T02:46:02.835Z,65.09
2022-08-07T02:48:31.203Z,65.19
2022-08-07T02:51:05.175Z,65.41
2022-08-07T02:53:39.035Z,66.13
2022-08-07T02:56:17.597Z,65.22
2022-08-07T02:58:50.158Z,65.62
2022-08-07T03:01:36.462Z,64.81
2022-08-07T03:04:12.614Z,66.91
2022-08-07T03:06:44.717Z,66.81
2022-08-07T03:09:13.846Z,66.70
2022-08-07T03:11:52.136Z,66.98
2022-08-07T03:14:26.356Z,65.81
2022-08-07T03:16:57.179Z,65.30
2022-08-07T03:19:29.021Z,65.25
2022-08-07T03:22:07.141Z,65.23
2022-08-07T03:24:36.770Z,64.30
2022-08-07T03:27:08.950Z,64.41
2022-08-07T03:29:46.289Z,65.08
2022-08-07T03:32:22.679Z,64.49
2022-08-07T03:35:01.039Z,63.62
2022-08-07T03:37:46.176Z,65.49
2022-08-07T03:40:23.995Z,65.39
2022-08-07T03:42:58.947Z,65.92
2022-08-07T03:45:31.092Z,64.90
2022-08-07T03:47:59.797Z,64.59
2022-08-07T03:50:28.506Z,65.20
2022-08-07T03:52:59.456Z,64.47
2022-08-07T03:55:58.080Z,64.81
2022-08-07T03:59:04.959Z,65.12
2022-08-07T04:01:11.205Z,64.90
2022-08-07T04:03:53.133Z,64.95
2022-08-07T04:06:37.996Z,65.26
2022-08-07T04:09:15.354Z,64.02
2022-08-07T04:12:26.380Z,64.31
2022-08-07T04:14:38.599Z,63.51
2022-08-07T04:17:20.498Z,63.83
2022-08-07T04:19:52.861Z,63.77
2022-08-07T04:22:29.394Z,62.76
2022-08-07T04:25:00.994Z,62.27
2022-08-07T04:27:35.902Z,62.29
2022-08-07T04:30:11.762Z,62.02
2022-08-07T04:32:58.288Z,61.96
2022-08-07T04:35:28.543Z,61.77
2022-08-07T04:38:07.910Z,62.45
2022-08-07T04:40:52.043Z,61.25
2022-08-07T04:44:10.307Z,61.51
2022-08-07T04:46:34.360Z,60.97
2022-08-07T04:49:24.229Z,60.50
2022-08-07T04:52:03.355Z,60.24
2022-08-07T04:58:10.521Z,60.95
2022-08-07T04:58:49.632Z,61.35
2022-08-07T05:01:50.622Z,60.48
2022-08-07T05:04:47.210Z,59.68
2022-08-07T05:07:30.512Z,58.71
2022-08-07T05:10:23.267Z,58.40
2022-08-07T05:14:53.043Z,58.35
2022-08-07T05:16:17.116Z,58.01
2022-08-07T05:18:53.440Z,58.01
2022-08-07T05:21:59.552Z,57.78
2022-08-07T05:24:19.924Z,57.94
2022-08-07T05:26:57.264Z,56.73
2022-08-07T05:29:38.864Z,57.07
2022-08-07T05:32:18.980Z,56.71
2022-08-07T05:34:48.743Z,57.18
2022-08-07T05:37:26.000Z,57.03
2022-08-07T05:40:06.793Z,56.34
2022-08-07T05:42:43.055Z,55.83
2022-08-07T05:45:46.843Z,54.94
2022-08-07T05:48:12.551Z,54.49
2022-08-07T05:50:42.849Z,53.12
2022-08-07T05:54:13.869Z,51.14
2022-08-07T05:56:01.957Z,48.64
2022-08-07T05:58:36.650Z,46.31
2022-08-07T06:01:08.440Z,44.53
2022-08-07T06:03:53.748Z,44.59
2022-08-07T06:06:29.626Z,43.83
2022-08-07T06:09:01.235Z,42.27
2022-08-07T06:11:34.207Z,41.84
2022-08-07T06:14:21.293Z,41.00
2022-08-07T06:16:57.221Z,40.06
2022-08-07T06:19:47.886Z,38.86
2022-08-07T06:22:23.512Z,36.52
2022-08-07T06:24:58.439Z,36.50
2022-08-07T06:28:00.750Z,36.37
2022-08-07T06:30:35.167Z,35.94
2022-08-07T06:33:03.837Z,37.04
2022-08-07T06:35:45.471Z,36.96
2022-08-07T06:38:20.240Z,35.99
2022-08-07T06:40:53.238Z,34.56
2022-08-07T06:43:23.780Z,34.14
2022-08-07T06:45:51.646Z,34.38
2022-08-07T06:48:25.009Z,34.56
2022-08-07T06:50:56.239Z,33.08
2022-08-07T06:54:11.703Z,33.29
2022-08-07T06:56:16.412Z,31.78
2022-08-07T07:00:12.465Z,31.96
2022-08-07T07:01:43.858Z,32.10
2022-08-07T07:04:28.203Z,32.45
2022-08-07T07:07:10.515Z,32.84
2022-08-07T07:09:54.889Z,30.65
2022-08-07T07:12:53.447Z,32.82
2022-08-07T07:15:36.031Z,31.71
2022-08-07T07:18:47.164Z,30.42
2022-08-07T07:21:27.308Z,29.29
2022-08-07T07:24:12.566Z,31.42
2022-08-07T07:26:51.717Z,32.96
2022-08-07T07:29:39.463Z,32.10
2022-08-07T07:32:14.760Z,31.17
2022-08-07T07:34:57.913Z,32.72
2022-08-07T07:37:47.368Z,30.85
2022-08-07T07:40:20.565Z,28.23
2022-08-07T07:42:55.837Z,28.78
2022-08-07T07:46:37.072Z,28.53
2022-08-07T07:48:24.398Z,27.38
2022-08-07T07:51:07.911Z,25.68
2022-08-07T07:53:52.155Z,24.83
2022-08-07T07:56:30.079Z,24.27
2022-08-07T07:59:08.921Z,23.16
2022-08-07T08:02:02.430Z,24.48
2022-08-07T08:04:33.807Z,24.44
2022-08-07T08:07:02.711Z,23.72
2022-08-07T08:09:31.921Z,24.87
2022-08-07T08:12:42.897Z,24.45
2022-08-07T08:15:07.326Z,24.01
2022-08-07T08:17:58.112Z,22.75
2022-08-07T08:20:31.629Z,22.87
2022-08-07T08:23:19.453Z,23.32
2022-08-07T08:26:27.069Z,22.42
2022-08-07T08:28:58.424Z,22.78
2022-08-07T08:32:17.238Z,22.20
2022-08-07T08:34:27.276Z,22.63
2022-08-07T08:37:02.890Z,23.31
2022-08-07T08:39:39.657Z,24.59
2022-08-07T08:42:40.332Z,24.90
2022-08-07T08:46:03.080Z,24.01
2022-08-07T08:49:02.144Z,21.72
2022-08-07T08:52:00.698Z,22.75
2022-08-07T08:54:45.015Z,21.99
2022-08-07T08:57:49.464Z,21.41
2022-08-07T09:00:17.599Z,21.55
2022-08-07T09:02:58.662Z,23.67
2022-08-07T09:06:26.753Z,25.09
2022-08-07T09:09:43.706Z,25.91
2022-08-07T09:12:34.164Z,26.05
2022-08-07T09:16:24.255Z,27.10
2022-08-07T09:19:51.354Z,26.81
2022-08-07T09:22:22.977Z,24.40
2022-08-07T09:25:17.588Z,22.38
2022-08-07T09:30:00.466Z,22.84
2022-08-07T09:31:24.350Z,21.39
2022-08-07T09:34:40.803Z,20.39
2022-08-07T09:37:34.318Z,20.24
2022-08-07T09:40:27.387Z,22.18
2022-08-07T09:44:03.477Z,20.69
2022-08-07T09:47:49.764Z,18.28
2022-08-07T09:50:02.459Z,19.12
2022-08-07T09:52:37.199Z,18.20
2022-08-07T09:56:03.135Z,18.05
2022-08-07T09:59:13.789Z,18.72
2022-08-07T10:02:19.616Z,19.41
2022-08-07T10:05:59.004Z,18.53
2022-08-07T10:08:40.748Z,19.55
2022-08-07T10:12:02.473Z,20.86
2022-08-07T10:15:05.336Z,21.83
2022-08-07T10:18:21.262Z,22.63
2022-08-07T10:22:14.137Z,23.96
2022-08-07T10:24:40.912Z,25.33
2022-08-07T10:28:07.347Z,26.04
2022-08-07T10:31:17.796Z,27.22
2022-08-07T10:34:14.591Z,28.20
2022-08-07T10:37:12.481Z,28.76
2022-08-07T10:40:39.024Z,29.45
2022-08-07T10:43:13.259Z,30.23
2022-08-07T10:45:58.470Z,29.76
2022-08-07T10:48:48.860Z,30.16
2022-08-07T10:51:57.637Z,29.58
2022-08-07T10:54:24.644Z,29.12
2022-08-07T10:57:34.669Z,28.88
2022-08-07T11:00:36.579Z,28.48
2022-08-07T11:04:16.947Z,25.98
2022-08-07T11:07:56.514Z,24.75
2022-08-07T11:10:40.836Z,22.78
2022-08-07T11:14:45.419Z,21.83
2022-08-07T11:17:13.544Z,20.74
2022-08-07T11:20:11.258Z,19.61
2022-08-07T11:22:49.714Z,20.42
2022-08-07T11:25:50.343Z,19.79
2022-08-07T11:29:13.224Z,19.76
2022-08-07T11:32:05.986Z,19.02
2022-08-07T11:34:40.948Z,20.21
2022-08-07T11:37:58.415Z,21.42
2022-08-07T11:40:59.620Z,21.07
2022-08-07T11:44:12.534Z,21.35
2022-08-07T11:47:55.913Z,21.73
2022-08-07T11:51:40.816Z,20.45
2022-08-07T11:54:33.557Z,20.86
2022-08-07T11:58:00.820Z,21.96
2022-08-07T12:01:02.505Z,20.68
2022-08-07T12:04:09.522Z,18.02
2022-08-07T12:07:00.387Z,18.24
2022-08-07T12:10:17.916Z,17.96
2022-08-07T12:13:03.428Z,18.18
2022-08-07T12:16:06.564Z,18.04
2022-08-07T12:18:54.100Z,18.48
2022-08-07T12:22:36.053Z,18.85
2022-08-07T12:26:02.932Z,20.77
2022-08-07T12:28:53.969Z,20.35
2022-08-07T12:31:56.564Z,19.92
2022-08-07T12:34:38.470Z,21.64
2022-08-07T12:37:17.046Z,20.72
2022-08-07T12:39:52.701Z,21.28
2022-08-07T12:42:31.846Z,21.16
2022-08-07T12:45:12.465Z,21.02
2022-08-07T12:48:13.040Z,23.68
2022-08-07T12:51:12.864Z,23.86
2022-08-07T12:54:37.188Z,23.50
2022-08-07T12:57:09.833Z,22.95
2022-08-07T12:59:53.846Z,22.08
2022-08-07T13:03:08.141Z,22.16
2022-08-07T13:06:21.562Z,22.29
2022-08-07T13:10:20.478Z,22.56
2022-08-07T13:12:27.745Z,23.01
2022-08-07T13:15:31.746Z,23.19
2022-08-07T13:18:31.979Z,23.17
2022-08-07T13:21:35.282Z,23.46
2022-08-07T13:24:38.157Z,23.05
2022-08-07T13:28:12.801Z,23.54
2022-08-07T13:30:40.965Z,24.13
2022-08-07T13:34:33.577Z,23.83
2022-08-07T13:36:41.826Z,24.49
2022-08-07T13:40:34.124Z,24.33
2022-08-07T13:42:40.029Z,25.17
2022-08-07T13:45:21.069Z,24.53
2022-08-07T13:48:06.886Z,25.42
2022-08-07T13:50:44.787Z,25.59
2022-08-07T13:53:59.639Z,26.79
2022-08-07T13:56:35.376Z,26.78
2022-08-07T13:59:21.620Z,26.80
2022-08-07T14:02:10.373Z,26.65
2022-08-07T14:04:54.818Z,27.39
2022-08-07T14:07:28.073Z,26.57
2022-08-07T14:10:17.689Z,26.55
2022-08-07T14:13:03.654Z,26.72
2022-08-07T14:15:50.732Z,27.26
2022-08-07T14:18:30.601Z,26.81
2022-08-07T14:21:20.884Z,27.43
2022-08-07T14:24:14.085Z,26.67
2022-08-07T14:28:09.447Z,26.46
2022-08-07T14:30:07.162Z,26.88
2022-08-07T14:32:53.367Z,26.93
2022-08-07T14:35:43.288Z,26.85
2022-08-07T14:38:26.875Z,26.54
2022-08-07T14:41:04.203Z,26.50
2022-08-07T14:43:59.337Z,27.36
2022-08-07T14:46:35.910Z,27.14
2022-08-07T14:49:17.509Z,26.95
2022-08-07T14:52:03.862Z,26.73
2022-08-07T14:54:43.106Z,26.16
2022-08-07T14:57:14.895Z,25.60
2022-08-07T15:00:05.822Z,27.15
2022-08-07T15:05:26.867Z,26.93
2022-08-07T15:07:59.129Z,27.33
2022-08-07T15:10:30.056Z,26.63
2022-08-07T15:15:57.599Z,27.69
2022-08-07T15:21:45.034Z,27.17
2022-08-07T15:27:29.044Z,27.50
2022-08-07T15:30:16.122Z,27.48
2022-08-07T15:32:50.876Z,27.38
2022-08-07T15:36:02.224Z,27.75
2022-08-07T15:41:24.480Z,26.92
2022-08-07T15:44:12.448Z,26.89
2022-08-07T15:46:52.008Z,26.92
2022-08-07T15:50:05.789Z,27.36
2022-08-07T15:52:30.538Z,28.32
2022-08-07T15:55:03.401Z,28.11
2022-08-07T15:57:47.506Z,27.80
2022-08-07T16:00:31.529Z,28.01
2022-08-07T16:03:06.661Z,27.87
2022-08-07T16:05:52.594Z,28.65
2022-08-07T16:08:30.353Z,27.91
2022-08-07T16:11:26.186Z,27.72
2022-08-07T16:14:19.318Z,27.78
2022-08-07T16:18:01.578Z,27.77
2022-08-07T16:21:44.145Z,28.09
2022-08-07T16:24:09.236Z,28.61
2022-08-07T16:27:20.991Z,28.75
2022-08-07T16:30:30.639Z,28.59
2022-08-07T16:34:02.756Z,28.69
2022-08-07T16:36:31.209Z,29.12
2022-08-07T16:39:40.255Z,28.79
2022-08-07T16:42:33.791Z,28.44
2022-08-07T16:46:47.167Z,29.13
2022-08-07T16:50:27.449Z,28.95
2022-08-07T16:52:51.251Z,28.06
2022-08-07T16:55:47.127Z,28.55
2022-08-07T16:59:10.137Z,28.56
2022-08-07T17:01:42.298Z,29.28
2022-08-07T17:04:58.613Z,28.72
2022-08-07T17:07:57.842Z,28.87
2022-08-07T17:10:54.266Z,29.00
2022-08-07T17:13:41.112Z,29.39
2022-08-07T17:16:28.597Z,28.93
2022-08-07T17:19:15.779Z,29.11
2022-08-07T17:21:58.962Z,29.26
2022-08-07T17:24:53.303Z,29.54
2022-08-07T17:27:56.077Z,29.66
2022-08-07T17:30:28.659Z,29.38
2022-08-07T17:34:09.529Z,28.95
2022-08-07T17:35:55.890Z,29.23
2022-08-07T17:38:35.337Z,29.54
2022-08-07T17:42:04.580Z,29.37
2022-08-07T17:44:41.470Z,30.79
2022-08-07T17:47:42.384Z,30.97
2022-08-07T17:50:46.982Z,31.06
2022-08-07T17:53:59.835Z,31.26
2022-08-07T17:57:18.958Z,31.37
2022-08-07T17:59:56.967Z,31.56
2022-08-07T18:03:09.124Z,31.87
2022-08-07T18:06:09.244Z,32.47
2022-08-07T18:09:01.897Z,32.69
2022-08-07T18:12:16.822Z,33.31
2022-08-07T18:14:59.889Z,32.78
2022-08-07T18:18:44.654Z,33.41
2022-08-07T18:21:10.478Z,32.85
2022-08-07T18:24:11.968Z,33.54
2022-08-07T18:27:38.533Z,33.96
2022-08-07T18:30:32.371Z,33.54
2022-08-07T18:33:25.288Z,34.35
2022-08-07T18:36:42.253Z,35.13
2022-08-07T18:40:05.705Z,35.20
2022-08-07T18:42:30.417Z,35.71
2022-08-07T18:45:44.923Z,36.02
2022-08-07T18:50:05.179Z,36.10
2022-08-07T18:52:34.968Z,36.01
2022-08-07T18:55:40.222Z,36.36
2022-08-07T18:58:17.869Z,36.54
2022-08-07T19:02:16.013Z,36.65
2022-08-07T19:04:59.479Z,37.46
2022-08-07T19:08:05.380Z,38.43
2022-08-07T19:10:51.822Z,38.37
2022-08-07T19:13:45.104Z,38.39
2022-08-07T19:17:08.245Z,39.19
2022-08-07T19:20:28.723Z,38.99
2022-08-07T19:23:17.956Z,39.26
2022-08-07T19:26:24.111Z,38.99
2022-08-07T19:30:57.129Z,39.39
2022-08-07T19:32:07.986Z,40.13
2022-08-07T19:34:38.674Z,40.12
2022-08-07T19:37:17.811Z,41.53
2022-08-07T19:39:56.387Z,41.80
2022-08-07T19:42:40.610Z,41.43
2022-08-07T19:46:01.189Z,41.27
2022-08-07T19:48:18.740Z,41.27
2022-08-07T19:50:53.091Z,40.95
2022-08-07T19:54:31.745Z,40.72
2022-08-07T19:57:52.020Z,41.51
2022-08-07T19:59:00.114Z,41.52
2022-08-07T20:01:53.040Z,41.28
2022-08-07T20:04:31.624Z,41.73
2022-08-07T20:07:10.668Z,41.76
2022-08-07T20:10:35.994Z,42.14
2022-08-07T20:12:47.752Z,41.74
2022-08-07T20:15:23.305Z,41.39
2022-08-07T20:18:01.283Z,41.88
2022-08-07T20:20:33.762Z,41.72
2022-08-07T20:23:10.999Z,42.58
2022-08-07T20:25:56.022Z,42.51
2022-08-07T20:28:30.809Z,42.58
2022-08-07T20:30:59.263Z,43.11
2022-08-07T20:33:38.347Z,44.01
2022-08-07T20:36:09.781Z,44.07
2022-08-07T20:38:53.751Z,44.96
2022-08-07T20:41:45.923Z,44.82
2022-08-07T20:44:16.687Z,45.04
2022-08-07T20:46:46.689Z,45.01
2022-08-07T20:50:00.394Z,44.95
2022-08-07T20:52:17.730Z,45.51
2022-08-07T20:54:56.156Z,45.66
2022-08-07T20:57:29.797Z,46.16
2022-08-07T21:00:09.196Z,46.61
2022-08-07T21:03:00.695Z,45.76
2022-08-07T21:05:58.316Z,46.10
2022-08-07T21:08:41.071Z,46.57
2022-08-07T21:11:21.998Z,46.65
2022-08-07T21:14:31.598Z,47.01
2022-08-07T21:18:03.591Z,47.51
2022-08-07T21:20:04.857Z,47.12
2022-08-07T21:22:54.698Z,48.41
2022-08-07T21:25:56.253Z,48.75
2022-08-07T21:28:48.281Z,49.70
2022-08-07T21:32:43.646Z,49.90
2022-08-07T21:35:12.538Z,50.76
2022-08-07T21:37:58.288Z,50.96
2022-08-07T21:40:58.342Z,51.38
2022-08-07T21:44:25.377Z,53.18
2022-08-07T21:47:50.173Z,53.33
2022-08-07T21:50:27.686Z,54.15
2022-08-07T21:53:10.785Z,54.15
2022-08-07T21:56:16.927Z,54.57
2022-08-07T21:58:59.891Z,54.18
2022-08-07T22:02:07.745Z,54.42
2022-08-07T22:04:53.637Z,54.79
2022-08-07T22:07:57.939Z,55.01
2022-08-07T22:10:35.436Z,54.59
2022-08-07T22:13:09.290Z,55.36
2022-08-07T22:16:44.426Z,55.72
2022-08-07T22:19:18.219Z,55.46
2022-08-07T22:22:28.616Z,55.75
2022-08-07T22:25:02.949Z,54.55
2022-08-07T22:28:02.915Z,55.82
2022-08-07T22:31:56.000Z,55.72
2022-08-07T22:34:13.355Z,56.14
2022-08-07T22:37:05.148Z,56.05
2022-08-07T22:40:20.374Z,55.44
2022-08-07T22:42:52.881Z,56.42
2022-08-07T22:46:21.993Z,56.63
2022-08-07T22:49:02.124Z,57.87
2022-08-07T22:52:36.544Z,58.14
2022-08-07T22:55:43.514Z,57.96
2022-08-07T22:58:42.374Z,59.06
2022-08-07T23:02:07.456Z,59.17
2022-08-07T23:06:07.222Z,59.16
2022-08-07T23:08:24.069Z,58.93
2022-08-07T23:11:28.250Z,60.08
2022-08-07T23:14:26.495Z,60.26
2022-08-07T23:17:27.486Z,59.30
2022-08-07T23:20:52.392Z,58.39
2022-08-07T23:24:06.329Z,58.33
2022-08-07T23:26:25.211Z,57.57
2022-08-07T23:29:42.570Z,57.49
2022-08-07T23:34:22.055Z,58.03
2022-08-07T23:35:37.571Z,57.20
2022-08-07T23:38:36.971Z,57.06
2022-08-07T23:41:47.737Z,57.13
2022-08-07T23:45:02.476Z,56.30
2022-08-07T23:47:42.464Z,56.66
2022-08-07T23:50:35.497Z,56.59
2022-08-07T23:53:51.025Z,56.78
2022-08-07T23:57:05.234Z,57.46
